Time;durP1;ratioP1;P1;durP2;ratioP2;P2;SDS_P1;SDS_P2;PMS_P1;PMS_P2;Temp;Humidity;BMP_temperature;BMP_pressure;BME280_temperature;BME280_humidity;BME280_pressure;Samples;Min_cycle;Max_cycle;Signal;HPM_P1;HPM_P2
2021/12/10 00:01:34;;;;;;;44.08;16.60;;;;;;;21.38;17.58;96826.00;4982564;28;20118;-80
2021/12/10 00:04:02;;;;;;;44.55;17.52;;;;;;;21.70;17.40;96828.59;4992032;28;20036;-80
2021/12/10 00:06:35;;;;;;;43.38;16.77;;;;;;;21.99;17.05;96822.88;4988472;28;20394;-80
2021/12/10 00:09:08;;;;;;;36.08;15.25;;;;;;;22.40;16.92;96819.06;4990979;28;20505;-80
2021/12/10 00:12:00;;;;;;;41.28;16.67;;;;;;;22.61;16.42;96821.16;4986419;28;20104;-80
2021/12/10 00:14:30;;;;;;;45.65;16.48;;;;;;;22.65;16.47;96819.00;4981302;28;20038;-80
2021/12/10 00:16:58;;;;;;;44.60;16.97;;;;;;;22.57;16.45;96820.44;4991405;28;20046;-80
2021/12/10 00:19:37;;;;;;;44.60;17.58;;;;;;;22.11;16.88;96819.25;4992402;28;20023;-80
2021/12/10 00:22:10;;;;;;;49.75;17.42;;;;;;;21.26;17.70;96815.63;4990974;28;20046;-80
2021/12/10 00:24:39;;;;;;;47.08;18.08;;;;;;;20.90;18.26;96815.88;4988927;28;20041;-80
2021/12/10 00:27:08;;;;;;;40.00;14.82;;;;;;;21.02;18.06;96819.91;4991753;28;20029;-80
2021/12/10 00:29:40;;;;;;;45.47;16.80;;;;;;;20.17;18.94;96799.97;4992270;28;20035;-80
2021/12/10 00:32:17;;;;;;;41.42;15.48;;;;;;;19.86;19.18;96802.34;4990912;28;20528;-80
2021/12/10 00:34:48;;;;;;;43.55;16.45;;;;;;;19.97;19.21;96810.44;4991944;28;20061;-80
2021/12/10 00:37:19;;;;;;;46.10;19.00;;;;;;;20.33;18.68;96802.72;4986901;28;20041;-80
2021/12/10 00:39:58;;;;;;;50.17;18.77;;;;;;;20.86;18.38;96801.25;4993540;28;20058;-79
2021/12/10 00:42:29;;;;;;;46.17;15.75;;;;;;;21.88;17.51;96805.69;4989132;28;20041;-79
2021/12/10 00:44:57;;;;;;;46.65;17.92;;;;;;;22.22;16.70;96796.56;4976279;28;20509;-79
2021/12/10 00:47:24;;;;;;;45.30;17.02;;;;;;;21.84;17.21;96779.88;4993968;28;20038;-79
2021/12/10 00:49:51;;;;;;;50.55;17.95;;;;;;;20.83;18.17;96779.03;4985890;28;20105;-79
2021/12/10 00:52:19;;;;;;;53.28;19.27;;;;;;;21.09;17.99;96787.03;4987738;28;20058;-79
2021/12/10 00:54:46;;;;;;;44.17;17.15;;;;;;;21.95;17.11;96786.66;4992259;28;20030;-79
2021/12/10 00:57:13;;;;;;;57.38;19.60;;;;;;;21.30;17.59;96766.03;4992060;28;20113;-79
2021/12/10 00:59:41;;;;;;;43.40;16.08;;;;;;;21.15;18.08;96781.66;4984277;28;20046;-79
2021/12/10 01:02:10;;;;;;;55.80;20.17;;;;;;;21.93;17.21;96791.94;4989335;28;20066;-79
2021/12/10 01:04:39;;;;;;;47.35;17.75;;;;;;;22.72;16.64;96781.56;4993389;28;20350;-79
2021/12/10 01:07:10;;;;;;;46.88;16.48;;;;;;;23.13;16.15;96787.56;4986978;28;20050;-80
2021/12/10 01:09:41;;;;;;;50.30;17.38;;;;;;;23.50;15.95;96787.78;4991998;28;20030;-80
2021/12/10 01:12:19;;;;;;;42.80;16.65;;;;;;;23.86;15.58;96787.88;4985837;28;20061;-80
2021/12/10 01:26:22;;;;;;;43.03;16.70;;;;;;;24.26;15.33;96801.84;4986950;28;20098;-80
2021/12/10 01:28:57;;;;;;;37.75;15.60;;;;;;;24.33;15.23;96802.34;4987885;28;20034;-80
2021/12/10 01:31:24;;;;;;;37.53;15.43;;;;;;;24.45;14.98;96793.00;4992267;28;20368;-80
2021/12/10 01:33:52;;;;;;;44.50;16.85;;;;;;;24.34;15.06;96783.47;4985562;28;20030;-79
2021/12/10 01:36:18;;;;;;;46.13;18.58;;;;;;;23.78;15.50;96781.78;4984322;28;20050;-80
2021/12/10 01:38:48;;;;;;;51.00;19.10;;;;;;;23.54;15.64;96785.63;4987296;28;20041;-79
2021/12/10 01:41:18;;;;;;;45.08;18.65;;;;;;;23.38;15.78;96778.25;4991696;28;20433;-79
2021/12/10 01:43:47;;;;;;;45.00;16.80;;;;;;;23.06;16.13;96770.25;4992572;28;20045;-80
2021/12/10 01:46:19;;;;;;;44.25;16.98;;;;;;;22.84;16.47;96777.94;4988769;28;20394;-80
2021/12/10 01:48:52;;;;;;;48.78;18.42;;;;;;;22.90;16.35;96782.47;4985432;28;20041;-80
2021/12/10 01:51:21;;;;;;;49.47;18.45;;;;;;;22.91;16.24;96784.03;4990573;28;20049;-80
2021/12/10 01:53:50;;;;;;;48.78;19.85;;;;;;;22.91;16.35;96794.44;4992682;28;20046;-80
2021/12/10 01:56:21;;;;;;;44.33;17.95;;;;;;;22.86;16.29;96798.63;4990418;28;20393;-79
2021/12/10 01:58:48;;;;;;;42.17;17.90;;;;;;;22.71;16.54;96799.63;4987752;28;20069;-79
2021/12/10 02:01:19;;;;;;;50.03;18.92;;;;;;;22.72;16.56;96801.16;4980813;28;20149;-79
2021/12/10 02:03:47;;;;;;;41.38;16.73;;;;;;;22.74;16.48;96807.06;4986745;28;20038;-79
2021/12/10 02:06:13;;;;;;;47.67;18.23;;;;;;;22.81;16.58;96802.00;4985045;28;20031;-79
2021/12/10 02:08:40;;;;;;;42.67;17.05;;;;;;;23.06;16.45;96799.03;4987358;28;20031;-79
2021/12/10 02:11:07;;;;;;;46.30;17.48;;;;;;;23.24;16.07;96798.38;4988412;28;20065;-79
2021/12/10 02:13:34;;;;;;;40.03;14.65;;;;;;;22.94;16.28;96785.16;4970022;28;20034;-79
2021/12/10 02:16:00;;;;;;;47.38;18.27;;;;;;;22.47;16.64;96785.25;4984305;28;20030;-79
2021/12/10 02:18:27;;;;;;;41.53;15.68;;;;;;;22.43;16.99;96790.19;4989627;28;20042;-79
2021/12/10 02:21:02;;;;;;;43.25;15.80;;;;;;;22.74;16.78;96779.09;4988750;28;20026;-79
2021/12/10 02:23:36;;;;;;;36.70;15.57;;;;;;;23.03;16.41;96769.19;4991241;28;20130;-79
2021/12/10 02:26:04;;;;;;;46.25;15.65;;;;;;;22.86;16.40;96765.03;4988422;28;20027;-79
2021/12/10 02:28:30;;;;;;;41.78;17.30;;;;;;;21.37;17.72;96765.81;4984879;28;20034;-79
2021/12/10 02:30:57;;;;;;;43.35;16.45;;;;;;;21.08;18.21;96765.91;4988666;28;20405;-79
2021/12/10 02:33:26;;;;;;;40.10;15.75;;;;;;;21.84;17.49;96758.28;4991274;28;20092;-79
2021/12/10 02:35:53;;;;;;;44.78;18.02;;;;;;;22.32;17.03;96759.81;4989125;28;20066;-79
2021/12/10 02:38:20;;;;;;;45.92;17.17;;;;;;;22.60;16.58;96752.41;4972337;28;20038;-79
2021/12/10 02:40:48;;;;;;;42.85;17.55;;;;;;;22.81;16.56;96743.25;4990420;28;20026;-79
2021/12/10 02:43:16;;;;;;;42.28;15.50;;;;;;;22.95;16.26;96751.09;4983543;28;20035;-79
2021/12/10 02:45:45;;;;;;;40.40;15.88;;;;;;;22.61;16.48;96743.56;4986085;28;20038;-79
2021/12/10 02:48:11;;;;;;;47.60;19.15;;;;;;;22.76;16.43;96746.63;4986903;28;20042;-79
2021/12/10 02:50:38;;;;;;;42.67;17.38;;;;;;;22.26;16.85;96744.88;4985040;28;20467;-79
2021/12/10 02:53:08;;;;;;;49.67;19.23;;;;;;;22.56;16.66;96749.75;4987942;28;20097;-79
2021/12/10 02:55:35;;;;;;;42.13;16.00;;;;;;;22.85;16.38;96745.91;4989731;28;20056;-79
2021/12/10 02:58:06;;;;;;;37.65;14.93;;;;;;;23.10;16.32;96749.31;4981741;28;20042;-79
2021/12/10 03:00:38;;;;;;;38.95;15.82;;;;;;;23.28;15.98;96743.00;4984816;28;20026;-79
2021/12/10 03:03:04;;;;;;;46.00;16.48;;;;;;;23.43;15.78;96746.84;4983190;28;20038;-79
2021/12/10 03:05:31;;;;;;;41.80;16.48;;;;;;;23.47;15.71;96743.88;4974257;28;20030;-79
2021/12/10 03:07:57;;;;;;;36.50;14.13;;;;;;;23.67;15.72;96750.63;4985880;28;20069;-79
2021/12/10 03:10:29;;;;;;;41.70;14.93;;;;;;;23.71;15.60;96744.91;4987114;28;20176;-79
2021/12/10 03:12:55;;;;;;;34.95;14.07;;;;;;;23.49;15.75;96742.19;4986993;28;20076;-79
2021/12/10 03:15:23;;;;;;;31.42;13.68;;;;;;;23.50;15.70;96742.97;4992191;28;20034;-79
2021/12/10 03:17:50;;;;;;;36.95;15.15;;;;;;;23.73;15.60;96756.41;4986713;28;20035;-80
2021/12/10 03:20:23;;;;;;;37.40;15.82;;;;;;;24.01;15.38;96760.84;4988925;28;20458;-79
2021/12/10 03:22:52;;;;;;;39.78;15.90;;;;;;;24.25;15.34;96775.81;4989670;28;20065;-79
2021/12/10 03:25:18;;;;;;;36.65;14.52;;;;;;;24.37;15.15;96755.25;4986602;28;20073;-79
2021/12/10 03:27:46;;;;;;;37.58;14.13;;;;;;;24.46;15.05;96754.47;4985870;28;20546;-79
2021/12/10 03:30:20;;;;;;;38.28;15.52;;;;;;;24.56;14.97;96756.81;4982891;28;20026;-79
2021/12/10 03:32:48;;;;;;;35.88;15.02;;;;;;;24.64;15.00;96758.03;4983764;28;20148;-79
2021/12/10 03:35:23;;;;;;;33.83;14.18;;;;;;;24.72;14.85;96769.72;4990570;28;20159;-79
2021/12/10 03:37:49;;;;;;;38.08;13.95;;;;;;;24.69;14.91;96784.72;4987215;28;20029;-79
2021/12/10 03:40:18;;;;;;;35.45;14.57;;;;;;;24.77;14.86;96771.16;4988115;28;20035;-79
2021/12/10 03:42:47;;;;;;;43.10;15.85;;;;;;;24.83;14.81;96775.69;4988608;28;20038;-79
2021/12/10 03:45:15;;;;;;;32.78;14.00;;;;;;;24.86;14.69;96773.94;4984856;28;20042;-79
2021/12/10 03:47:42;;;;;;;47.25;16.67;;;;;;;24.73;14.80;96768.50;4985222;28;20053;-79
2021/12/10 03:50:11;;;;;;;36.67;14.88;;;;;;;24.59;15.04;96769.13;4988337;28;20092;-79
2021/12/10 03:52:38;;;;;;;40.47;15.48;;;;;;;24.41;15.21;96771.94;4990427;28;20046;-79
2021/12/10 03:55:06;;;;;;;41.13;17.27;;;;;;;24.36;15.32;96778.19;4985735;28;20038;-79
2021/12/10 03:57:32;;;;;;;43.05;15.63;;;;;;;24.28;15.28;96791.72;4982429;28;20117;-79
2021/12/10 03:59:59;;;;;;;47.47;18.05;;;;;;;24.33;15.07;96787.53;4984828;28;20109;-79
2021/12/10 04:02:26;;;;;;;37.97;14.48;;;;;;;24.11;15.36;96779.25;4989268;28;20104;-79
2021/12/10 04:04:52;;;;;;;43.33;16.98;;;;;;;23.73;15.62;96782.44;4987400;28;20088;-79
2021/12/10 04:07:22;;;;;;;43.63;16.83;;;;;;;23.44;15.96;96781.22;4982627;28;20034;-79
2021/12/10 04:09:50;;;;;;;34.10;14.43;;;;;;;23.39;16.00;96782.59;4989466;28;20038;-79
2021/12/10 04:12:17;;;;;;;42.50;16.20;;;;;;;23.66;15.83;96777.09;4987066;28;20098;-79
2021/12/10 04:14:46;;;;;;;36.92;14.23;;;;;;;23.89;15.75;96778.56;4986264;28;20147;-79
2021/12/10 04:17:12;;;;;;;43.35;16.73;;;;;;;24.18;15.36;96783.78;4983806;28;20027;-79
2021/12/10 04:19:39;;;;;;;39.35;16.00;;;;;;;24.40;15.14;96773.19;4985267;28;20106;-79
2021/12/10 04:22:09;;;;;;;40.60;15.32;;;;;;;24.41;15.19;96783.94;4969272;28;20528;-79
2021/12/10 04:24:38;;;;;;;36.83;15.77;;;;;;;24.27;15.36;96775.38;4989952;28;20569;-79
2021/12/10 04:27:06;;;;;;;43.05;16.52;;;;;;;24.20;15.23;96776.44;4989409;28;20030;-79
2021/12/10 04:29:33;;;;;;;39.92;15.35;;;;;;;23.88;15.54;96782.59;4973234;28;20038;-79
2021/12/10 04:32:00;;;;;;;37.20;15.18;;;;;;;23.80;15.71;96775.75;4984125;28;20027;-79
2021/12/10 04:34:27;;;;;;;34.97;14.15;;;;;;;24.02;15.30;96774.38;4983397;28;20035;-79
2021/12/10 04:36:56;;;;;;;37.63;14.82;;;;;;;23.99;15.50;96777.34;4989066;28;20056;-79
2021/12/10 04:39:23;;;;;;;41.08;15.65;;;;;;;24.02;15.73;96784.81;4988154;28;20030;-79
2021/12/10 04:41:49;;;;;;;36.75;15.65;;;;;;;24.22;15.30;96796.41;4982660;28;20027;-79
2021/12/10 04:44:15;;;;;;;37.85;15.57;;;;;;;24.36;15.15;96803.44;4990205;28;20048;-78
2021/12/10 04:46:42;;;;;;;36.42;14.93;;;;;;;24.24;15.47;96802.34;4991711;28;20561;-78
2021/12/10 04:49:12;;;;;;;41.15;15.35;;;;;;;23.85;15.55;96801.13;4989189;28;20063;-78
2021/12/10 04:51:41;;;;;;;38.88;15.75;;;;;;;23.67;15.87;96803.88;4992420;28;20035;-79
2021/12/10 04:54:10;;;;;;;34.20;14.95;;;;;;;23.73;15.93;96813.25;4992037;28;20046;-78
2021/12/10 04:56:38;;;;;;;41.90;16.27;;;;;;;23.69;15.78;96811.81;4987159;28;20089;-79
2021/12/10 04:59:07;;;;;;;40.15;16.73;;;;;;;22.81;16.47;96806.81;4973785;28;20057;-79
2021/12/10 05:01:34;;;;;;;42.28;16.13;;;;;;;23.15;16.31;96798.34;4990935;28;20058;-78
2021/12/10 05:04:02;;;;;;;37.08;15.40;;;;;;;23.51;15.90;96798.53;4983796;28;20482;-78
2021/12/10 05:06:28;;;;;;;37.60;15.23;;;;;;;23.69;15.88;96792.19;4968884;28;20039;-78
2021/12/10 05:08:55;;;;;;;38.75;15.35;;;;;;;24.01;15.73;96800.84;4985722;28;20065;-79
2021/12/10 05:11:21;;;;;;;44.75;17.42;;;;;;;24.24;15.54;96809.97;4990094;28;20038;-78
2021/12/10 05:13:47;;;;;;;38.55;15.20;;;;;;;24.33;15.23;96801.56;4992402;28;20508;-79
2021/12/10 05:16:15;;;;;;;36.85;15.63;;;;;;;24.44;15.07;96802.66;4991497;28;20486;-79
2021/12/10 05:18:44;;;;;;;41.25;16.27;;;;;;;24.33;15.45;96807.16;4988763;28;20502;-78
2021/12/10 05:21:13;;;;;;;45.90;16.88;;;;;;;24.15;15.46;96796.72;4990375;28;20039;-78
2021/12/10 05:23:39;;;;;;;45.53;17.90;;;;;;;24.22;15.52;96798.44;4974222;28;20026;-78
2021/12/10 05:26:07;;;;;;;49.65;19.50;;;;;;;24.38;15.27;96790.50;4981738;28;20494;-78
2021/12/10 05:28:33;;;;;;;52.78;18.42;;;;;;;24.43;15.47;96789.09;4981723;28;20050;-78
2021/12/10 05:31:00;;;;;;;82.55;25.90;;;;;;;24.59;15.25;96786.75;4987937;28;20133;-78
2021/12/10 05:33:28;;;;;;;82.47;26.88;;;;;;;24.71;14.98;96773.81;4988595;28;20081;-78
2021/12/10 05:35:54;;;;;;;80.78;26.42;;;;;;;24.65;15.09;96775.66;4992762;28;20030;-78
2021/12/10 05:38:22;;;;;;;82.38;26.17;;;;;;;24.49;15.10;96776.00;4984645;28;20085;-78
2021/12/10 05:40:52;;;;;;;71.57;23.83;;;;;;;24.49;15.31;96776.78;4990758;28;20517;-79
2021/12/10 05:43:19;;;;;;;48.80;19.35;;;;;;;24.49;15.38;96776.78;4988428;28;20452;-79
2021/12/10 05:45:47;;;;;;;50.22;18.70;;;;;;;24.27;15.51;96781.00;4987905;28;20074;-79
2021/12/10 05:48:13;;;;;;;49.70;16.98;;;;;;;24.19;15.53;96782.53;4981438;28;20583;-79
2021/12/10 05:50:40;;;;;;;49.80;17.33;;;;;;;24.27;15.51;96786.59;4992307;28;20438;-79
2021/12/10 05:53:07;;;;;;;45.50;18.33;;;;;;;24.24;15.58;96779.88;4985596;28;20058;-79
2021/12/10 05:55:34;;;;;;;46.45;19.27;;;;;;;24.21;15.40;96785.63;4980428;28;20044;-79
2021/12/10 05:58:00;;;;;;;53.28;21.30;;;;;;;24.19;15.50;96786.13;4983018;28;20031;-79
2021/12/10 06:00:34;;;;;;;44.00;19.20;;;;;;;24.21;15.49;96782.84;4986180;28;20110;-80
2021/12/10 06:03:00;;;;;;;40.42;17.45;;;;;;;24.22;15.49;96781.59;4987247;28;20042;-79
2021/12/10 06:05:29;;;;;;;47.92;20.35;;;;;;;24.32;15.37;96785.97;4986400;28;20043;-79
2021/12/10 06:07:55;;;;;;;48.42;18.50;;;;;;;24.35;15.13;96790.63;4985358;28;20030;-79
2021/12/10 06:10:23;;;;;;;47.38;19.17;;;;;;;24.41;15.33;96800.75;4988589;28;20039;-79
2021/12/10 06:12:50;;;;;;;53.13;19.92;;;;;;;24.46;15.27;96802.16;4988480;28;20034;-80
2021/12/10 06:15:19;;;;;;;51.50;21.08;;;;;;;24.10;15.51;96807.75;4985582;28;20042;-79
2021/12/10 06:17:46;;;;;;;46.88;19.50;;;;;;;23.12;16.24;96814.03;4986090;28;20033;-81
2021/12/10 06:20:16;;;;;;;48.70;19.63;;;;;;;22.72;16.65;96812.34;4986167;28;20047;-79
2021/12/10 06:22:43;;;;;;;48.33;19.30;;;;;;;22.77;16.64;96811.78;4988045;28;20026;-79
2021/12/10 06:25:09;;;;;;;47.72;17.80;;;;;;;22.88;16.74;96817.75;4974342;28;20549;-79
2021/12/10 06:27:38;;;;;;;46.90;18.77;;;;;;;23.11;16.62;96808.88;4987143;28;20034;-79
2021/12/10 06:30:05;;;;;;;40.72;18.85;;;;;;;23.11;16.24;96814.47;4991184;28;20105;-78
2021/12/10 06:32:31;;;;;;;42.03;16.85;;;;;;;22.40;17.00;96811.47;4985245;28;20454;-80
2021/12/10 06:34:58;;;;;;;39.45;15.63;;;;;;;21.86;17.58;96810.94;4992170;28;20490;-80
2021/12/10 06:37:24;;;;;;;40.75;17.15;;;;;;;21.89;17.59;96808.00;4994500;28;20042;-80
2021/12/10 06:39:50;;;;;;;38.88;17.00;;;;;;;22.40;17.34;96816.28;4978669;28;20039;-80
2021/12/10 06:42:16;;;;;;;38.15;16.40;;;;;;;23.11;16.53;96808.88;4975830;28;20034;-80
2021/12/10 06:44:42;;;;;;;44.97;18.80;;;;;;;23.40;16.31;96809.38;4977147;28;20112;-80
2021/12/10 06:47:08;;;;;;;46.58;18.98;;;;;;;23.68;16.06;96811.06;4994856;28;20035;-80
2021/12/10 06:49:35;;;;;;;40.65;18.00;;;;;;;23.19;16.12;96807.38;4993946;28;20403;-80
2021/12/10 06:52:01;;;;;;;46.78;18.38;;;;;;;22.31;17.25;96805.78;4994670;28;20061;-81
2021/12/10 06:54:28;;;;;;;45.60;17.55;;;;;;;22.03;17.52;96807.53;4978498;28;20043;-81
2021/12/10 06:56:56;;;;;;;44.15;19.02;;;;;;;22.14;17.53;96809.97;4975483;28;20086;-80
2021/12/10 06:59:25;;;;;;;42.13;17.15;;;;;;;22.01;17.68;96812.00;4976375;28;20035;-80
2021/12/10 07:01:52;;;;;;;47.88;20.77;;;;;;;21.64;17.91;96807.22;4989972;28;20026;-80
2021/12/10 07:04:19;;;;;;;48.30;18.83;;;;;;;21.14;18.35;96808.03;4977169;28;20056;-80
2021/12/10 07:06:47;;;;;;;48.22;19.92;;;;;;;21.81;17.86;96803.88;4986043;28;20044;-80
2021/12/10 07:09:20;;;;;;;52.25;20.58;;;;;;;22.63;16.90;96797.06;4994513;28;20140;-80
2021/12/10 07:11:47;;;;;;;42.65;16.88;;;;;;;23.22;16.29;96804.41;4994501;28;20035;-80
2021/12/10 07:14:14;;;;;;;48.22;20.48;;;;;;;23.74;16.01;96802.81;4991387;28;20069;-80
2021/12/10 07:16:40;;;;;;;40.55;17.95;;;;;;;24.17;15.70;96799.03;4994148;28;20034;-80
2021/12/10 07:19:07;;;;;;;47.38;20.40;;;;;;;24.36;15.31;96795.81;4993596;28;20113;-80
2021/12/10 07:21:35;;;;;;;44.70;19.25;;;;;;;24.38;15.38;96786.91;4972653;28;20380;-80
2021/12/10 07:24:06;;;;;;;44.70;19.95;;;;;;;23.75;15.72;96784.75;4972058;28;20058;-80
2021/12/10 07:26:34;;;;;;;51.15;20.10;;;;;;;22.44;17.09;96803.72;4976560;28;20038;-80
2021/12/10 07:29:00;;;;;;;44.35;19.00;;;;;;;22.28;17.43;96800.31;4993854;28;20061;-80
2021/12/10 07:31:27;;;;;;;48.75;20.55;;;;;;;22.55;17.23;96806.91;4993991;28;20034;-80
2021/12/10 07:33:54;;;;;;;54.63;21.75;;;;;;;23.10;16.84;96807.31;4974653;28;20022;-80
2021/12/10 07:36:22;;;;;;;46.95;19.30;;;;;;;23.54;16.52;96811.63;4991011;28;20026;-80
2021/12/10 07:38:50;;;;;;;50.20;20.98;;;;;;;23.75;16.27;96818.38;4990798;28;20031;-80
2021/12/10 07:41:16;;;;;;;54.80;23.08;;;;;;;23.93;16.21;96821.25;4993904;28;20102;-80
2021/12/10 07:43:42;;;;;;;45.28;19.48;;;;;;;24.16;15.75;96817.88;4972795;28;20399;-80
2021/12/10 07:46:09;;;;;;;49.78;20.52;;;;;;;24.21;15.79;96824.91;4973195;28;20039;-80
2021/12/10 07:48:36;;;;;;;38.90;16.08;;;;;;;24.39;15.52;96816.50;4974297;28;20042;-81
2021/12/10 07:51:15;;;;;;;45.22;19.95;;;;;;;24.36;15.54;96818.25;4954776;28;20047;-80
2021/12/10 07:53:42;;;;;;;49.97;20.15;;;;;;;23.96;15.97;96823.91;4959978;28;20133;-80
2021/12/10 07:56:10;;;;;;;47.58;20.58;;;;;;;24.04;16.04;96825.16;4955295;29;20067;-81
2021/12/10 07:58:40;;;;;;;48.90;20.65;;;;;;;24.20;15.79;96832.53;4955053;29;20038;-80
2021/12/10 08:01:16;;;;;;;47.72;20.63;;;;;;;23.99;16.27;96831.38;4955132;28;20368;-80
2021/12/10 08:03:43;;;;;;;49.08;20.30;;;;;;;24.30;16.19;96833.34;4954804;28;20145;-80
2021/12/10 08:06:10;;;;;;;49.33;21.65;;;;;;;24.69;16.26;96838.06;4963848;28;20037;-80
2021/12/10 08:08:36;;;;;;;46.90;20.42;;;;;;;25.02;15.75;96838.22;4967064;28;20117;-80
2021/12/10 08:11:03;;;;;;;43.22;20.30;;;;;;;24.97;15.65;96841.66;4973954;28;20027;-80
2021/12/10 08:13:29;;;;;;;46.35;21.27;;;;;;;24.90;15.76;96839.91;4974808;28;20030;-80
2021/12/10 08:15:55;;;;;;;44.80;19.50;;;;;;;24.81;15.80;96831.50;4970092;28;20087;-80
2021/12/10 08:18:21;;;;;;;52.40;22.35;;;;;;;24.59;16.25;96836.50;4957462;28;20053;-80
2021/12/10 08:20:48;;;;;;;49.47;22.70;;;;;;;24.76;16.16;96829.34;4958731;28;20035;-80
2021/12/10 08:23:15;;;;;;;56.35;24.88;;;;;;;24.73;16.40;96838.69;4958634;29;20031;-80
2021/12/10 08:25:41;;;;;;;56.45;27.42;;;;;;;24.78;16.46;96831.69;4963196;28;20058;-80
2021/12/10 08:28:08;;;;;;;68.60;29.25;;;;;;;24.92;16.18;96839.47;4975750;28;20494;-80
2021/12/10 08:30:37;;;;;;;62.17;27.42;;;;;;;25.01;16.07;96834.63;4971718;28;20117;-80
2021/12/10 08:33:10;;;;;;;53.53;23.75;;;;;;;25.22;16.00;96846.91;4957279;28;20047;-80
2021/12/10 08:35:36;;;;;;;49.88;23.95;;;;;;;25.30;15.81;96842.50;4972356;28;20034;-80
2021/12/10 08:38:03;;;;;;;59.80;26.35;;;;;;;24.65;16.10;96851.44;4977927;28;20038;-80
2021/12/10 08:40:34;;;;;;;53.97;25.65;;;;;;;24.81;16.19;96856.03;4977670;28;20113;-80
2021/12/10 08:43:00;;;;;;;;;;;;;;;25.01;15.85;96859.13;4977763;28;20038;-80
2021/12/10 08:45:28;;;;;;;48.45;23.70;;;;;;;25.28;15.90;96853.44;4960546;28;20024;-80
2021/12/10 08:47:55;;;;;;;49.28;22.67;;;;;;;24.97;15.90;96856.44;4957909;29;20039;-81
2021/12/10 08:50:24;;;;;;;51.67;23.58;;;;;;;25.18;15.98;96849.88;4971833;28;20051;-80
2021/12/10 08:52:57;;;;;;;48.75;20.70;;;;;;;25.28;15.74;96848.59;4977883;28;20031;-80
2021/12/10 08:55:23;;;;;;;52.05;23.92;;;;;;;25.39;15.73;96848.13;4977675;28;20372;-80
2021/12/10 08:57:49;;;;;;;52.90;24.33;;;;;;;25.60;15.60;96846.38;4977409;28;20114;-80
2021/12/10 09:00:17;;;;;;;54.20;25.80;;;;;;;24.84;15.78;96833.38;4987255;28;20490;-80
2021/12/10 09:02:43;;;;;;;52.63;25.08;;;;;;;24.69;16.32;96843.66;4992050;28;20045;-80
2021/12/10 09:05:11;;;;;;;44.83;21.67;;;;;;;24.99;16.18;96841.97;4982840;28;20514;-80
2021/12/10 09:07:42;;;;;;;53.42;23.98;;;;;;;25.30;15.61;96848.91;4996222;28;20042;-80
2021/12/10 09:10:09;;;;;;;55.55;24.65;;;;;;;25.54;15.90;96840.59;4984513;28;20027;-80
2021/12/10 09:12:36;;;;;;;52.55;23.10;;;;;;;25.85;15.50;96848.75;4977385;28;20031;-80
2021/12/10 09:15:05;;;;;;;50.88;22.63;;;;;;;26.12;15.26;96848.66;4977250;28;20065;-80
2021/12/10 09:17:33;;;;;;;50.40;24.55;;;;;;;25.74;15.35;96838.00;4989582;28;20065;-80
2021/12/10 09:20:06;;;;;;;51.67;23.58;;;;;;;25.79;15.71;96845.06;4996895;28;20049;-80
2021/12/10 09:22:32;;;;;;;50.38;22.95;;;;;;;25.92;15.45;96839.97;4990498;28;20066;-80
2021/12/10 09:24:58;;;;;;;48.25;23.77;;;;;;;25.94;15.59;96831.84;4984509;28;20039;-80
2021/12/10 09:27:25;;;;;;;53.25;24.33;;;;;;;26.04;15.60;96836.19;4976939;28;20106;-80
2021/12/10 09:29:54;;;;;;;53.55;24.75;;;;;;;26.20;15.82;96832.97;4977743;28;20031;-80
2021/12/10 09:32:24;;;;;;;49.70;23.70;;;;;;;26.11;15.83;96835.84;4982967;28;20034;-80
2021/12/10 09:34:51;;;;;;;48.22;22.63;;;;;;;26.30;15.28;96837.28;4995764;28;20027;-80
2021/12/10 09:37:19;;;;;;;41.35;21.33;;;;;;;26.28;15.33;96825.72;4996020;28;20046;-80
2021/12/10 09:39:48;;;;;;;60.33;24.95;;;;;;;26.20;15.43;96820.94;4979931;28;20031;-80
2021/12/10 09:42:15;;;;;;;45.03;20.90;;;;;;;26.11;15.91;96812.56;4976480;28;20498;-80
2021/12/10 09:44:42;;;;;;;49.88;22.15;;;;;;;26.33;15.88;96813.03;4976248;28;20487;-80
2021/12/10 09:47:14;;;;;;;50.22;23.20;;;;;;;26.39;15.43;96814.72;4976482;28;20034;-80
2021/12/10 09:49:42;;;;;;;50.72;24.33;;;;;;;26.19;15.36;96817.34;4976715;28;20046;-81
2021/12/10 09:52:08;;;;;;;47.47;23.05;;;;;;;26.18;15.72;96823.47;4994415;28;20402;-80
2021/12/10 09:54:35;;;;;;;52.75;24.38;;;;;;;26.21;15.46;96820.44;4996104;28;20054;-81
2021/12/10 09:57:36;;;;;;;45.80;21.90;;;;;;;26.18;15.65;96821.44;4983318;28;20066;-80
2021/12/10 10:00:10;;;;;;;;;;;;;;;26.01;15.49;96823.06;4969760;28;20051;-80
2021/12/10 10:02:36;;;;;;;54.03;25.85;;;;;;;26.13;15.54;96815.66;4976445;28;19957;-80
2021/12/10 10:05:04;;;;;;;57.03;26.48;;;;;;;25.65;16.03;96809.19;4976233;28;20422;-80
2021/12/10 10:07:30;;;;;;;50.90;24.02;;;;;;;25.71;15.86;96807.28;4977746;28;20034;-80
2021/12/10 10:10:04;;;;;;;53.85;24.35;;;;;;;25.92;15.75;96817.47;4994423;28;20039;-80
2021/12/10 10:12:33;;;;;;;47.95;23.88;;;;;;;26.26;16.09;96819.78;4995413;28;20030;-80
2021/12/10 10:15:04;;;;;;;49.92;24.63;;;;;;;25.94;16.01;96817.78;4995223;28;20154;-80
2021/12/10 10:17:30;;;;;;;52.13;25.70;;;;;;;25.56;16.03;96812.00;4989632;28;20122;-80
2021/12/10 10:19:57;;;;;;;52.28;26.27;;;;;;;24.64;16.97;96819.78;4978050;28;20090;-80
2021/12/10 10:22:27;;;;;;;53.40;26.30;;;;;;;24.73;17.11;96819.03;4982511;28;20089;-80
2021/12/10 10:24:54;;;;;;;55.30;27.67;;;;;;;24.96;16.89;96815.59;4994891;28;20042;-80
2021/12/10 10:27:25;;;;;;;58.42;27.92;;;;;;;25.19;16.83;96806.50;4995309;28;20049;-80
2021/12/10 10:29:57;;;;;;;51.92;26.02;;;;;;;25.60;16.37;96804.22;4994013;28;20034;-79
2021/12/10 10:32:27;;;;;;;58.95;29.58;;;;;;;25.76;15.86;96798.19;4987957;28;20041;-80
2021/12/10 10:35:01;;;;;;;52.05;24.23;;;;;;;25.89;16.06;96796.72;4980637;28;20034;-79
2021/12/10 10:37:28;;;;;;;55.15;25.20;;;;;;;25.97;16.17;96802.78;4993117;28;20096;-80
2021/12/10 10:39:55;;;;;;;55.88;27.88;;;;;;;25.97;16.09;96799.97;4994442;28;20117;-80
2021/12/10 10:42:25;;;;;;;55.20;26.55;;;;;;;25.69;16.09;96798.53;4994571;28;20026;-80
2021/12/10 10:44:53;;;;;;;57.17;26.58;;;;;;;25.41;16.56;96795.03;4987251;28;20537;-80
2021/12/10 10:47:23;;;;;;;67.72;31.65;;;;;;;24.88;16.62;96799.56;4974439;28;20027;-80
2021/12/10 10:49:59;;;;;;;55.30;27.42;;;;;;;25.09;16.92;96802.13;4973700;28;20091;-80
2021/12/10 10:52:31;;;;;;;55.30;28.33;;;;;;;25.07;16.86;96812.28;4975163;28;20031;-80
2021/12/10 10:55:26;;;;;;;53.53;27.25;;;;;;;24.68;17.24;96816.84;4981774;28;20038;-80
2021/12/10 10:58:00;;;;;;;55.05;27.23;;;;;;;24.84;17.28;96810.94;4985634;28;20027;-80
2021/12/10 11:00:50;;;;;;;63.15;29.67;;;;;;;24.36;17.20;96811.84;4989326;28;20033;-80
2021/12/10 11:03:23;;;;;;;51.83;26.65;;;;;;;25.18;16.88;96809.78;4993280;28;20582;-80
2021/12/10 11:05:57;;;;;;;60.95;28.02;;;;;;;25.46;16.94;96793.66;4979214;28;20030;-80
2021/12/10 11:08:49;;;;;;;60.80;29.52;;;;;;;25.03;16.61;96797.63;4990714;28;20064;-80
2021/12/10 11:11:24;;;;;;;57.47;28.88;;;;;;;24.34;17.45;96795.47;4984438;28;20514;-80
2021/12/10 11:14:08;;;;;;;60.42;29.25;;;;;;;24.39;17.69;96803.25;4974880;28;20038;-80
2021/12/10 11:16:37;;;;;;;55.63;26.52;;;;;;;24.98;17.61;96804.66;4989963;28;20034;-80
2021/12/10 11:19:16;;;;;;;52.33;25.75;;;;;;;25.55;16.62;96807.66;4988824;28;20046;-80
2021/12/10 11:21:56;;;;;;;52.55;25.80;;;;;;;25.90;16.43;96808.75;4994242;28;20038;-80
2021/12/10 11:24:37;;;;;;;47.70;23.88;;;;;;;26.05;16.35;96799.13;4994379;28;20500;-80
2021/12/10 11:27:13;;;;;;;54.65;26.02;;;;;;;25.84;16.51;96805.00;4993857;28;20435;-80
2021/12/10 11:29:51;;;;;;;51.95;25.42;;;;;;;26.12;16.41;96800.03;4992199;28;20048;-80
2021/12/10 11:32:23;;;;;;;50.45;26.38;;;;;;;25.91;16.34;96805.44;4994201;28;20038;-80
2021/12/10 11:34:51;;;;;;;62.22;28.30;;;;;;;25.95;16.63;96816.53;4993481;28;20037;-80
2021/12/10 11:37:52;;;;;;;52.47;24.90;;;;;;;26.24;16.71;96818.72;4993983;28;20042;-80